createdAt,value
2022-07-26T00:00:20.454Z,29.713
2022-07-26T00:05:17.426Z,29.713
2022-07-26T00:10:17.314Z,29.713
2022-07-26T00:15:20.679Z,29.714
2022-07-26T00:20:20.430Z,29.714
2022-07-26T00:25:20.598Z,29.714
2022-07-26T00:30:20.492Z,29.727
2022-07-26T00:35:20.535Z,29.727
2022-07-26T00:40:20.585Z,29.727
2022-07-26T00:45:20.582Z,29.743
2022-07-26T00:50:20.514Z,29.743
2022-07-26T00:55:20.558Z,29.743
2022-07-26T01:00:17.540Z,29.755
2022-07-26T01:05:18.585Z,29.755
2022-07-26T01:10:18.566Z,29.755
2022-07-26T01:15:18.611Z,29.758
2022-07-26T01:20:18.508Z,29.758
2022-07-26T01:25:18.579Z,29.758
2022-07-26T01:30:18.724Z,29.766
2022-07-26T01:35:15.484Z,29.766
2022-07-26T01:40:15.483Z,29.766
2022-07-26T01:45:18.701Z,29.771
2022-07-26T01:50:18.689Z,29.771
2022-07-26T01:55:18.508Z,29.771
2022-07-26T02:00:18.602Z,29.776
2022-07-26T02:05:18.833Z,29.776
2022-07-26T02:10:18.597Z,29.776
2022-07-26T02:15:18.676Z,29.783
2022-07-26T02:20:18.654Z,29.783
2022-07-26T02:25:18.634Z,29.783
2022-07-26T02:30:15.564Z,29.790
2022-07-26T02:35:15.590Z,29.790
2022-07-26T02:40:19.628Z,29.790
2022-07-26T02:45:18.736Z,29.789
2022-07-26T02:50:18.744Z,29.789
2022-07-26T02:55:18.744Z,29.789
2022-07-26T03:00:18.774Z,29.791
2022-07-26T03:05:18.728Z,29.791
2022-07-26T03:10:18.843Z,29.791
2022-07-26T03:15:18.722Z,29.794
2022-07-26T03:20:18.622Z,29.794
2022-07-26T03:25:15.670Z,29.794
2022-07-26T03:30:24.790Z,29.798
2022-07-26T03:35:18.828Z,29.798
2022-07-26T03:40:18.754Z,29.798
2022-07-26T03:45:18.800Z,29.801
2022-07-26T03:50:18.750Z,29.801
2022-07-26T03:55:18.813Z,29.801
2022-07-26T04:00:20.048Z,29.807
2022-07-26T04:05:23.417Z,29.807
2022-07-26T04:10:20.055Z,29.807
2022-07-26T04:15:20.188Z,29.807
2022-07-26T04:20:20.094Z,29.807
2022-07-26T04:25:20.081Z,29.807
2022-07-26T04:30:20.156Z,29.806
2022-07-26T04:35:20.014Z,29.806
2022-07-26T04:40:21.377Z,29.806
2022-07-26T04:45:16.984Z,29.804
2022-07-26T04:50:17.013Z,29.804
2022-07-26T04:55:20.065Z,29.804
2022-07-26T05:00:22.556Z,29.807
2022-07-26T05:05:20.103Z,29.807
2022-07-26T05:10:20.108Z,29.807
2022-07-26T05:15:20.170Z,29.805
2022-07-26T05:20:20.066Z,29.805
2022-07-26T05:25:20.156Z,29.805
2022-07-26T05:30:20.148Z,29.803
2022-07-26T05:35:20.211Z,29.803
2022-07-26T05:40:16.998Z,29.803
2022-07-26T05:45:20.207Z,29.807
2022-07-26T05:50:20.436Z,29.807
2022-07-26T05:55:20.187Z,29.807
2022-07-26T06:00:20.207Z,29.809
2022-07-26T06:05:20.127Z,29.809
2022-07-26T06:10:20.339Z,29.809
2022-07-26T06:15:20.183Z,29.815
2022-07-26T06:20:20.219Z,29.815
2022-07-26T06:25:20.339Z,29.815
2022-07-26T06:30:17.137Z,29.815
2022-07-26T06:35:17.069Z,29.815
2022-07-26T06:40:20.302Z,29.815
2022-07-26T06:45:20.263Z,29.815
2022-07-26T06:50:25.254Z,29.815
2022-07-26T06:55:20.392Z,29.815
2022-07-26T07:00:20.307Z,29.824
2022-07-26T07:05:20.354Z,29.824
2022-07-26T07:10:23.746Z,29.824
2022-07-26T07:15:20.164Z,29.833
2022-07-26T07:20:20.133Z,29.833
2022-07-26T07:25:17.232Z,29.833
2022-07-26T07:30:17.282Z,29.834
2022-07-26T07:35:20.357Z,29.834
2022-07-26T07:40:20.259Z,29.834
2022-07-26T07:45:20.394Z,29.826
2022-07-26T07:50:20.305Z,29.826
2022-07-26T07:55:40.364Z,29.826
2022-07-26T08:00:20.360Z,29.827
2022-07-26T08:05:20.301Z,29.827
2022-07-26T08:10:20.339Z,29.827
2022-07-26T08:15:21.360Z,29.828
2022-07-26T08:20:17.225Z,29.828
2022-07-26T08:25:20.388Z,29.828
2022-07-26T08:30:20.392Z,29.828
2022-07-26T08:35:20.353Z,29.828
2022-07-26T08:40:20.394Z,29.828
2022-07-26T08:45:20.425Z,29.831
2022-07-26T08:50:20.335Z,29.831
2022-07-26T08:55:20.403Z,29.831
2022-07-26T09:00:20.437Z,29.836
2022-07-26T09:05:20.319Z,29.836
2022-07-26T09:10:17.282Z,29.836
2022-07-26T09:15:17.567Z,29.843
2022-07-26T09:20:24.139Z,29.843
2022-07-26T09:25:20.478Z,29.843
2022-07-26T09:30:20.450Z,29.851
2022-07-26T09:35:46.000Z,29.851
2022-07-26T09:40:20.447Z,29.851
2022-07-26T09:45:20.758Z,29.855
2022-07-26T09:50:20.501Z,29.855
2022-07-26T09:55:20.441Z,29.855
2022-07-26T10:00:20.419Z,29.862
2022-07-26T10:05:17.364Z,29.862
2022-07-26T10:10:17.355Z,29.862
2022-07-26T10:15:20.487Z,29.865
2022-07-26T10:20:24.730Z,29.865
2022-07-26T10:25:20.510Z,29.865
2022-07-26T10:30:20.552Z,29.868
2022-07-26T10:35:20.624Z,29.868
2022-07-26T10:40:20.538Z,29.868
2022-07-26T10:45:20.531Z,29.868
2022-07-26T10:50:20.452Z,29.868
2022-07-26T10:55:17.483Z,29.868
2022-07-26T11:00:17.398Z,29.870
2022-07-26T11:05:20.625Z,29.870
2022-07-26T11:10:20.603Z,29.870
2022-07-26T11:15:18.532Z,29.875
2022-07-26T11:20:18.676Z,29.875
2022-07-26T11:25:18.750Z,29.875
2022-07-26T11:30:18.571Z,29.881
2022-07-26T11:35:15.451Z,29.881
2022-07-26T11:40:15.478Z,29.881
2022-07-26T11:45:18.682Z,29.883
2022-07-26T11:50:22.946Z,29.883
2022-07-26T11:55:18.652Z,29.883
2022-07-26T12:00:18.691Z,29.886
2022-07-26T12:05:19.331Z,29.886
2022-07-26T12:10:18.567Z,29.886
2022-07-26T12:15:18.708Z,29.886
2022-07-26T12:20:18.600Z,29.886
2022-07-26T12:25:18.685Z,29.886
2022-07-26T12:30:15.569Z,29.885
2022-07-26T12:35:15.804Z,29.885
2022-07-26T12:40:18.709Z,29.885
2022-07-26T12:45:18.780Z,29.884
2022-07-26T12:50:18.718Z,29.884
2022-07-26T12:55:18.710Z,29.884
2022-07-26T13:00:18.660Z,29.878
2022-07-26T13:05:19.124Z,29.878
2022-07-26T13:10:35.582Z,29.878
2022-07-26T13:15:18.722Z,29.876
2022-07-26T13:20:17.206Z,29.876
2022-07-26T13:25:15.656Z,29.876
2022-07-26T13:30:19.372Z,29.877
2022-07-26T13:35:18.807Z,29.877
2022-07-26T13:40:18.804Z,29.877
2022-07-26T13:45:19.005Z,29.879
2022-07-26T13:50:18.884Z,29.879
2022-07-26T13:55:19.230Z,29.879
2022-07-26T14:00:18.730Z,29.873
2022-07-26T14:05:18.804Z,29.873
2022-07-26T14:10:18.763Z,29.873
2022-07-26T14:15:21.416Z,29.872
2022-07-26T14:20:15.658Z,29.872
2022-07-26T14:25:18.842Z,29.872
2022-07-26T14:30:18.947Z,29.872
2022-07-26T14:35:18.880Z,29.872
2022-07-26T14:40:18.769Z,29.872
2022-07-26T14:45:18.903Z,29.873
2022-07-26T14:50:18.755Z,29.873
2022-07-26T14:55:24.695Z,29.873
2022-07-26T15:00:18.843Z,29.875
2022-07-26T15:05:18.859Z,29.875
2022-07-26T15:10:15.724Z,29.875
2022-07-26T15:15:18.923Z,29.873
2022-07-26T15:20:18.975Z,29.873
2022-07-26T15:25:18.847Z,29.873
2022-07-26T15:30:18.968Z,29.872
2022-07-26T15:35:19.050Z,29.872
2022-07-26T15:40:18.906Z,29.872
2022-07-26T15:45:19.020Z,29.869
2022-07-26T15:50:19.035Z,29.869
2022-07-26T15:55:18.935Z,29.869
2022-07-26T16:00:15.789Z,29.867
2022-07-26T16:05:15.797Z,29.867
2022-07-26T16:10:19.001Z,29.867
2022-07-26T16:15:18.986Z,29.857
2022-07-26T16:20:18.984Z,29.857
2022-07-26T16:25:18.944Z,29.857
2022-07-26T16:30:19.003Z,29.855
2022-07-26T16:35:18.974Z,29.855
2022-07-26T16:40:18.996Z,29.855
2022-07-26T16:45:19.016Z,29.853
2022-07-26T16:50:26.946Z,29.853
2022-07-26T16:55:15.918Z,29.853
2022-07-26T17:00:16.062Z,29.849
2022-07-26T17:05:19.008Z,29.849
2022-07-26T17:10:19.035Z,29.849
2022-07-26T17:15:19.059Z,29.846
2022-07-26T17:20:19.090Z,29.846
2022-07-26T17:25:19.082Z,29.846
2022-07-26T17:30:19.253Z,29.837
2022-07-26T17:35:18.929Z,29.837
2022-07-26T17:40:19.090Z,29.837
2022-07-26T17:45:15.955Z,29.836
2022-07-26T17:50:51.483Z,29.836
2022-07-26T17:55:19.414Z,29.836
2022-07-26T18:00:19.126Z,29.828
2022-07-26T18:05:19.299Z,29.828
2022-07-26T18:10:19.212Z,29.828
2022-07-26T18:15:19.183Z,29.827
2022-07-26T18:20:19.187Z,29.827
2022-07-26T18:25:19.178Z,29.827
2022-07-26T18:30:19.095Z,29.826
2022-07-26T18:35:19.110Z,29.826
2022-07-26T18:40:16.087Z,29.826
2022-07-26T18:45:16.018Z,29.820
2022-07-26T18:50:19.226Z,29.820
2022-07-26T18:55:19.188Z,29.820
2022-07-26T19:00:19.171Z,29.821
2022-07-26T19:05:19.212Z,29.821
2022-07-26T19:10:19.253Z,29.821
2022-07-26T19:15:19.157Z,29.821
2022-07-26T19:20:19.064Z,29.821
2022-07-26T19:25:19.254Z,29.821
2022-07-26T19:30:19.237Z,29.822
2022-07-26T19:35:16.077Z,29.822
2022-07-26T19:40:19.286Z,29.822
2022-07-26T19:45:19.376Z,29.820
2022-07-26T19:50:19.216Z,29.820
2022-07-26T19:55:19.244Z,29.820
2022-07-26T20:00:19.228Z,29.822
2022-07-26T20:05:19.281Z,29.822
2022-07-26T20:10:19.312Z,29.822
2022-07-26T20:15:19.289Z,29.823
2022-07-26T20:20:19.237Z,29.823
2022-07-26T20:25:21.339Z,29.823
2022-07-26T20:30:16.183Z,29.822
2022-07-26T20:35:19.496Z,29.822
2022-07-26T20:40:19.289Z,29.822
2022-07-26T20:45:19.341Z,29.822
2022-07-26T20:50:19.318Z,29.822
2022-07-26T20:55:19.449Z,29.822
2022-07-26T21:00:19.379Z,29.818
2022-07-26T21:05:19.308Z,29.818
2022-07-26T21:10:19.258Z,29.818
2022-07-26T21:15:19.439Z,29.814
2022-07-26T21:20:16.169Z,29.814
2022-07-26T21:25:16.261Z,29.814
2022-07-26T21:30:19.641Z,29.818
2022-07-26T21:35:19.330Z,29.818
2022-07-26T21:40:19.371Z,29.818
2022-07-26T21:45:19.394Z,29.812
2022-07-26T21:50:19.356Z,29.812
2022-07-26T21:55:19.423Z,29.812
2022-07-26T22:00:19.392Z,29.811
2022-07-26T22:05:19.430Z,29.811
2022-07-26T22:10:16.361Z,29.811
2022-07-26T22:15:16.244Z,29.819
2022-07-26T22:20:19.425Z,29.819
2022-07-26T22:25:19.525Z,29.819
2022-07-26T22:30:19.480Z,29.819
2022-07-26T22:35:19.496Z,29.819
2022-07-26T22:40:19.701Z,29.819
2022-07-26T22:45:19.514Z,29.819
2022-07-26T22:50:19.556Z,29.819
2022-07-26T22:55:19.476Z,29.819
2022-07-26T23:00:19.531Z,29.822
2022-07-26T23:05:16.421Z,29.822
2022-07-26T23:10:16.360Z,29.822
2022-07-26T23:15:19.593Z,29.821
2022-07-26T23:20:19.439Z,29.821
2022-07-26T23:25:19.614Z,29.821
2022-07-26T23:30:19.612Z,29.824
2022-07-26T23:35:19.509Z,29.824
2022-07-26T23:40:19.584Z,29.824
2022-07-26T23:45:19.573Z,29.822
2022-07-26T23:50:19.601Z,29.822
2022-07-26T23:55:19.559Z,29.822
